sensor_id;sensor_type;location;lat;lon;timestamp;pressure;altitude;pressure_sealevel;temperature;humidity
10869;BME280;62667;48.698;8.762;2024-03-08T00:02:24;96061.06;;;2.18;74.68
10869;BME280;62667;48.698;8.762;2024-03-08T00:04:53;96061.06;;;2.18;74.73
10869;BME280;62667;48.698;8.762;2024-03-08T00:07:19;96059.41;;;2.14;74.85
10869;BME280;62667;48.698;8.762;2024-03-08T00:09:46;96069.41;;;2.13;74.73
10869;BME280;62667;48.698;8.762;2024-03-08T00:12:15;96051.66;;;2.09;74.73
10869;BME280;62667;48.698;8.762;2024-03-08T00:14:42;96052.44;;;2.09;74.45
10869;BME280;62667;48.698;8.762;2024-03-08T00:17:10;96063.13;;;2.06;74.65
10869;BME280;62667;48.698;8.762;2024-03-08T00:19:36;96055.00;;;2.02;74.45
10869;BME280;62667;48.698;8.762;2024-03-08T00:22:04;96058.41;;;1.99;74.33
10869;BME280;62667;48.698;8.762;2024-03-08T00:24:31;96061.44;;;1.98;74.21
10869;BME280;62667;48.698;8.762;2024-03-08T00:26:58;96052.50;;;1.90;74.49
10869;BME280;62667;48.698;8.762;2024-03-08T00:29:27;96061.31;;;1.90;75.03
10869;BME280;62667;48.698;8.762;2024-03-08T00:31:56;96058.94;;;1.85;74.56
10869;BME280;62667;48.698;8.762;2024-03-08T00:34:23;96055.75;;;1.80;74.84
10869;BME280;62667;48.698;8.762;2024-03-08T00:36:50;96047.81;;;1.87;75.20
10869;BME280;62667;48.698;8.762;2024-03-08T00:39:18;96044.78;;;1.88;74.90
10869;BME280;62667;48.698;8.762;2024-03-08T00:41:46;96030.31;;;1.93;74.58
10869;BME280;62667;48.698;8.762;2024-03-08T00:44:13;96033.34;;;1.91;74.65
10869;BME280;62667;48.698;8.762;2024-03-08T00:46:39;96032.84;;;1.86;75.00
10869;BME280;62667;48.698;8.762;2024-03-08T00:49:06;96032.72;;;1.79;75.34
10869;BME280;62667;48.698;8.762;2024-03-08T00:51:32;96035.69;;;1.74;74.81
10869;BME280;62667;48.698;8.762;2024-03-08T00:53:59;96028.63;;;1.66;74.96
10869;BME280;62667;48.698;8.762;2024-03-08T00:56:27;96021.28;;;1.63;75.33
10869;BME280;62667;48.698;8.762;2024-03-08T00:58:53;96014.72;;;1.60;75.10
10869;BME280;62667;48.698;8.762;2024-03-08T01:01:20;96020.81;;;1.57;75.16
10869;BME280;62667;48.698;8.762;2024-03-08T01:03:46;96020.66;;;1.50;75.53
10869;BME280;62667;48.698;8.762;2024-03-08T01:06:14;96017.50;;;1.45;75.45
10869;BME280;62667;48.698;8.762;2024-03-08T01:08:40;96012.84;;;1.42;75.81
10869;BME280;62667;48.698;8.762;2024-03-08T01:11:08;96024.97;;;1.36;75.63
10869;BME280;62667;48.698;8.762;2024-03-08T01:13:36;96012.63;;;1.31;75.39
10869;BME280;62667;48.698;8.762;2024-03-08T01:16:03;96016.09;;;1.32;75.70
10869;BME280;62667;48.698;8.762;2024-03-08T01:18:30;96018.34;;;1.30;75.79
10869;BME280;62667;48.698;8.762;2024-03-08T01:20:57;96012.53;;;1.27;75.61
10869;BME280;62667;48.698;8.762;2024-03-08T01:23:26;96013.97;;;1.21;76.06
10869;BME280;62667;48.698;8.762;2024-03-08T01:25:52;96005.22;;;1.05;75.59
10869;BME280;62667;48.698;8.762;2024-03-08T01:28:22;96007.47;;;1.03;75.85
10869;BME280;62667;48.698;8.762;2024-03-08T01:30:54;96011.97;;;0.99;75.79
10869;BME280;62667;48.698;8.762;2024-03-08T01:33:22;95998.91;;;0.98;76.25
10869;BME280;62667;48.698;8.762;2024-03-08T01:35:49;95998.41;;;0.92;76.12
10869;BME280;62667;48.698;8.762;2024-03-08T01:38:15;96002.25;;;0.91;75.88
10869;BME280;62667;48.698;8.762;2024-03-08T01:40:42;95996.88;;;0.91;76.53
10869;BME280;62667;48.698;8.762;2024-03-08T01:43:17;95991.84;;;0.90;76.46
10869;BME280;62667;48.698;8.762;2024-03-08T01:45:44;95983.03;;;0.89;76.52
10869;BME280;62667;48.698;8.762;2024-03-08T01:48:12;95983.41;;;0.88;76.28
10869;BME280;62667;48.698;8.762;2024-03-08T01:50:40;95980.22;;;0.82;75.97
10869;BME280;62667;48.698;8.762;2024-03-08T01:53:08;95983.84;;;0.74;76.72
10869;BME280;62667;48.698;8.762;2024-03-08T01:55:36;95975.41;;;0.72;76.63
10869;BME280;62667;48.698;8.762;2024-03-08T01:58:03;95974.56;;;0.68;76.75
10869;BME280;62667;48.698;8.762;2024-03-08T02:00:32;95968.06;;;0.69;76.55
10869;BME280;62667;48.698;8.762;2024-03-08T02:02:59;95952.84;;;0.73;77.04
10869;BME280;62667;48.698;8.762;2024-03-08T02:05:27;95942.84;;;0.70;77.03
10869;BME280;62667;48.698;8.762;2024-03-08T02:07:54;95940.06;;;0.67;76.99
10869;BME280;62667;48.698;8.762;2024-03-08T02:10:22;95940.06;;;0.67;76.84
10869;BME280;62667;48.698;8.762;2024-03-08T02:12:48;95931.19;;;0.62;76.22
10869;BME280;62667;48.698;8.762;2024-03-08T02:15:18;95931.56;;;0.61;76.33
10869;BME280;62667;48.698;8.762;2024-03-08T02:17:45;95928.00;;;0.57;76.55
10869;BME280;62667;48.698;8.762;2024-03-08T02:20:11;95922.09;;;0.48;75.97
10869;BME280;62667;48.698;8.762;2024-03-08T02:22:40;95927.34;;;0.44;76.48
10869;BME280;62667;48.698;8.762;2024-03-08T02:25:08;95925.78;;;0.43;76.48
10869;BME280;62667;48.698;8.762;2024-03-08T02:27:35;95912.78;;;0.42;75.85
10869;BME280;62667;48.698;8.762;2024-03-08T02:30:02;95919.19;;;0.37;76.27
10869;BME280;62667;48.698;8.762;2024-03-08T02:32:30;95919.50;;;0.36;75.99
10869;BME280;62667;48.698;8.762;2024-03-08T02:34:58;95920.13;;;0.29;75.69
10869;BME280;62667;48.698;8.762;2024-03-08T02:37:25;95916.16;;;0.23;75.70
10869;BME280;62667;48.698;8.762;2024-03-08T02:39:55;95920.59;;;0.16;76.50
10869;BME280;62667;48.698;8.762;2024-03-08T02:42:22;95910.34;;;0.18;75.97
10869;BME280;62667;48.698;8.762;2024-03-08T02:44:48;95922.16;;;0.17;76.14
10869;BME280;62667;48.698;8.762;2024-03-08T02:47:14;95922.16;;;0.17;76.28
10869;BME280;62667;48.698;8.762;2024-03-08T02:49:41;95915.22;;;0.16;76.36
10869;BME280;62667;48.698;8.762;2024-03-08T02:52:08;95914.38;;;0.12;75.79
10869;BME280;62667;48.698;8.762;2024-03-08T02:54:34;95914.38;;;0.12;76.37
10869;BME280;62667;48.698;8.762;2024-03-08T02:57:03;95905.94;;;0.10;76.38
10869;BME280;62667;48.698;8.762;2024-03-08T02:59:32;95904.63;;;0.04;76.21
10869;BME280;62667;48.698;8.762;2024-03-08T03:01:59;95901.81;;;-0.04;76.42
10869;BME280;62667;48.698;8.762;2024-03-08T03:04:26;95897.56;;;-0.05;76.11
10869;BME280;62667;48.698;8.762;2024-03-08T03:06:53;95895.94;;;-0.09;75.97
10869;BME280;62667;48.698;8.762;2024-03-08T03:09:20;95887.66;;;-0.20;75.99
10869;BME280;62667;48.698;8.762;2024-03-08T03:11:49;95893.88;;;-0.31;76.10
10869;BME280;62667;48.698;8.762;2024-03-08T03:14:17;95893.38;;;-0.37;76.38
10869;BME280;62667;48.698;8.762;2024-03-08T03:16:44;95891.09;;;-0.50;76.68
10869;BME280;62667;48.698;8.762;2024-03-08T03:19:11;95888.88;;;-0.64;77.03
10869;BME280;62667;48.698;8.762;2024-03-08T03:21:37;95889.91;;;-0.53;77.25
10869;BME280;62667;48.698;8.762;2024-03-08T03:24:05;95887.84;;;-0.44;76.50
10869;BME280;62667;48.698;8.762;2024-03-08T03:26:35;95881.09;;;-0.38;76.79
10869;BME280;62667;48.698;8.762;2024-03-08T03:29:04;95877.47;;;-0.30;77.03
10869;BME280;62667;48.698;8.762;2024-03-08T03:31:32;95875.94;;;-0.31;77.19
10869;BME280;62667;48.698;8.762;2024-03-08T03:33:59;95870.75;;;-0.24;77.29
10869;BME280;62667;48.698;8.762;2024-03-08T03:36:28;95863.69;;;-0.32;77.15
10869;BME280;62667;48.698;8.762;2024-03-08T03:38:55;95865.25;;;-0.31;77.00
10869;BME280;62667;48.698;8.762;2024-03-08T03:41:30;95868.63;;;-0.34;76.16
10869;BME280;62667;48.698;8.762;2024-03-08T03:43:56;95871.72;;;-0.47;76.65
10869;BME280;62667;48.698;8.762;2024-03-08T03:46:24;95871.13;;;-0.56;76.92
10869;BME280;62667;48.698;8.762;2024-03-08T03:48:53;95864.31;;;-0.54;76.72
10869;BME280;62667;48.698;8.762;2024-03-08T03:51:20;95869.44;;;-0.61;76.46
10869;BME280;62667;48.698;8.762;2024-03-08T03:53:47;95860.06;;;-0.55;76.14
10869;BME280;62667;48.698;8.762;2024-03-08T03:56:14;95860.16;;;-0.51;76.18
10869;BME280;62667;48.698;8.762;2024-03-08T03:58:40;95861.00;;;-0.47;76.88
10869;BME280;62667;48.698;8.762;2024-03-08T04:01:07;95858.09;;;-0.42;76.71
10869;BME280;62667;48.698;8.762;2024-03-08T04:03:35;95854.31;;;-0.41;76.87
10869;BME280;62667;48.698;8.762;2024-03-08T04:06:03;95852.22;;;-0.48;76.86
10869;BME280;62667;48.698;8.762;2024-03-08T04:08:30;95861.69;;;-0.50;76.41
10869;BME280;62667;48.698;8.762;2024-03-08T04:11:00;95849.38;;;-0.55;76.42
10869;BME280;62667;48.698;8.762;2024-03-08T04:13:26;95848.44;;;-0.47;76.22
10869;BME280;62667;48.698;8.762;2024-03-08T04:15:53;95846.69;;;-0.39;76.37
10869;BME280;62667;48.698;8.762;2024-03-08T04:18:19;95851.69;;;-0.38;76.21
10869;BME280;62667;48.698;8.762;2024-03-08T04:20:46;95844.13;;;-0.51;76.77
10869;BME280;62667;48.698;8.762;2024-03-08T04:23:15;95850.06;;;-0.58;76.31
10869;BME280;62667;48.698;8.762;2024-03-08T04:25:43;95845.16;;;-0.56;76.51
10869;BME280;62667;48.698;8.762;2024-03-08T04:28:09;95842.91;;;-0.54;76.08
10869;BME280;62667;48.698;8.762;2024-03-08T04:30:37;95844.91;;;-0.51;75.88
10869;BME280;62667;48.698;8.762;2024-03-08T04:33:04;95844.38;;;-0.56;76.11
10869;BME280;62667;48.698;8.762;2024-03-08T04:35:31;95842.13;;;-0.70;76.17
10869;BME280;62667;48.698;8.762;2024-03-08T04:37:58;95842.03;;;-0.74;76.15
10869;BME280;62667;48.698;8.762;2024-03-08T04:40:26;95840.06;;;-0.77;76.43
10869;BME280;62667;48.698;8.762;2024-03-08T04:42:52;95841.53;;;-0.79;76.24
10869;BME280;62667;48.698;8.762;2024-03-08T04:45:19;95837.91;;;-0.71;76.22
10869;BME280;62667;48.698;8.762;2024-03-08T04:47:46;95853.50;;;-0.73;76.66
10869;BME280;62667;48.698;8.762;2024-03-08T04:50:13;95832.56;;;-0.71;76.74
10869;BME280;62667;48.698;8.762;2024-03-08T04:52:40;95828.00;;;-0.71;76.13
10869;BME280;62667;48.698;8.762;2024-03-08T04:55:06;95832.81;;;-0.60;76.59
10869;BME280;62667;48.698;8.762;2024-03-08T04:57:34;95827.22;;;-0.55;76.38
10869;BME280;62667;48.698;8.762;2024-03-08T05:00:01;95828.34;;;-0.56;76.37
10869;BME280;62667;48.698;8.762;2024-03-08T05:02:29;95821.13;;;-0.56;76.61
10869;BME280;62667;48.698;8.762;2024-03-08T05:04:56;95825.41;;;-0.67;76.65
10869;BME280;62667;48.698;8.762;2024-03-08T05:07:22;95824.72;;;-0.80;76.26
10869;BME280;62667;48.698;8.762;2024-03-08T05:09:51;95830.03;;;-0.95;76.27
10869;BME280;62667;48.698;8.762;2024-03-08T05:12:18;95820.03;;;-0.98;76.48
10869;BME280;62667;48.698;8.762;2024-03-08T05:14:46;95828.31;;;-1.03;75.89
10869;BME280;62667;48.698;8.762;2024-03-08T05:17:15;95816.16;;;-1.01;76.83
10869;BME280;62667;48.698;8.762;2024-03-08T05:19:41;95822.09;;;-1.07;76.37
10869;BME280;62667;48.698;8.762;2024-03-08T05:22:08;95827.53;;;-1.04;76.94
10869;BME280;62667;48.698;8.762;2024-03-08T05:24:35;95822.53;;;-1.05;76.93
10869;BME280;62667;48.698;8.762;2024-03-08T05:27:02;95827.53;;;-1.04;76.47
10869;BME280;62667;48.698;8.762;2024-03-08T05:29:28;95822.72;;;-0.98;77.16
10869;BME280;62667;48.698;8.762;2024-03-08T05:31:57;95814.13;;;-0.92;76.25
10869;BME280;62667;48.698;8.762;2024-03-08T05:34:24;95820.66;;;-0.89;76.15
10869;BME280;62667;48.698;8.762;2024-03-08T05:36:51;95814.88;;;-0.91;76.82
10869;BME280;62667;48.698;8.762;2024-03-08T05:39:19;95817.13;;;-0.62;77.50
10869;BME280;62667;48.698;8.762;2024-03-08T05:41:46;95813.63;;;0.19;78.66
10869;BME280;62667;48.698;8.762;2024-03-08T05:44:13;95813.09;;;-0.06;79.51
10869;BME280;62667;48.698;8.762;2024-03-08T05:46:42;95818.13;;;-0.20;79.22
10869;BME280;62667;48.698;8.762;2024-03-08T05:49:10;95812.28;;;0.10;79.04
10869;BME280;62667;48.698;8.762;2024-03-08T05:51:40;95808.19;;;0.92;78.20
10869;BME280;62667;48.698;8.762;2024-03-08T05:54:07;95806.50;;;0.84;78.15
10869;BME280;62667;48.698;8.762;2024-03-08T05:56:35;95808.72;;;0.59;77.22
10869;BME280;62667;48.698;8.762;2024-03-08T05:59:02;95810.41;;;0.29;75.96
10869;BME280;62667;48.698;8.762;2024-03-08T06:01:29;95811.16;;;0.11;75.09
10869;BME280;62667;48.698;8.762;2024-03-08T06:03:56;95805.03;;;0.10;75.32
10869;BME280;62667;48.698;8.762;2024-03-08T06:06:24;95813.13;;;0.14;75.39
10869;BME280;62667;48.698;8.762;2024-03-08T06:08:51;95814.28;;;0.13;74.74
10869;BME280;62667;48.698;8.762;2024-03-08T06:11:19;95811.94;;;0.11;75.17
10869;BME280;62667;48.698;8.762;2024-03-08T06:13:48;95814.28;;;0.13;74.71
10869;BME280;62667;48.698;8.762;2024-03-08T06:16:16;95806.66;;;0.15;74.80
10869;BME280;62667;48.698;8.762;2024-03-08T06:18:44;95803.72;;;0.20;74.99
10869;BME280;62667;48.698;8.762;2024-03-08T06:21:13;95806.34;;;0.00;74.98
10869;BME280;62667;48.698;8.762;2024-03-08T06:23:42;95809.38;;;-0.01;75.00
10869;BME280;62667;48.698;8.762;2024-03-08T06:26:09;95800.03;;;0.09;74.47
10869;BME280;62667;48.698;8.762;2024-03-08T06:28:35;95799.75;;;0.14;74.49
10869;BME280;62667;48.698;8.762;2024-03-08T06:31:02;95804.72;;;-0.04;73.68
10869;BME280;62667;48.698;8.762;2024-03-08T06:33:30;95813.78;;;-0.09;74.48
10869;BME280;62667;48.698;8.762;2024-03-08T06:36:00;95806.63;;;-0.05;73.81
10869;BME280;62667;48.698;8.762;2024-03-08T06:38:27;95814.72;;;-0.01;73.91
10869;BME280;62667;48.698;8.762;2024-03-08T06:40:57;95815.41;;;-0.04;73.79
10869;BME280;62667;48.698;8.762;2024-03-08T06:43:25;95801.69;;;-0.03;74.48
10869;BME280;62667;48.698;8.762;2024-03-08T06:45:58;95801.91;;;0.08;74.46
10869;BME280;62667;48.698;8.762;2024-03-08T06:48:24;95801.78;;;0.01;74.00
10869;BME280;62667;48.698;8.762;2024-03-08T06:50:51;95796.00;;;0.18;74.10
10869;BME280;62667;48.698;8.762;2024-03-08T06:53:17;95796.94;;;0.26;74.60
10869;BME280;62667;48.698;8.762;2024-03-08T06:55:44;95800.75;;;0.25;73.83
10869;BME280;62667;48.698;8.762;2024-03-08T06:58:12;95797.84;;;0.33;74.42
10869;BME280;62667;48.698;8.762;2024-03-08T07:00:39;95799.56;;;0.41;73.81
10869;BME280;62667;48.698;8.762;2024-03-08T07:03:07;95790.47;;;0.46;74.00
10869;BME280;62667;48.698;8.762;2024-03-08T07:05:37;95797.94;;;0.56;73.48
10869;BME280;62667;48.698;8.762;2024-03-08T07:08:07;95791.31;;;0.50;73.94
10869;BME280;62667;48.698;8.762;2024-03-08T07:10:34;95797.59;;;0.57;74.33
10869;BME280;62667;48.698;8.762;2024-03-08T07:13:04;95800.34;;;0.61;73.69
10869;BME280;62667;48.698;8.762;2024-03-08T07:15:32;95793.00;;;0.58;73.99
10869;BME280;62667;48.698;8.762;2024-03-08T07:17:59;95790.81;;;0.63;73.57
10869;BME280;62667;48.698;8.762;2024-03-08T07:20:26;95791.59;;;0.64;73.98
10869;BME280;62667;48.698;8.762;2024-03-08T07:22:56;95790.75;;;0.60;73.73
10869;BME280;62667;48.698;8.762;2024-03-08T07:25:23;95787.09;;;0.68;73.53
10869;BME280;62667;48.698;8.762;2024-03-08T07:27:55;95782.63;;;0.76;73.71
10869;BME280;62667;48.698;8.762;2024-03-08T07:30:23;95778.09;;;0.80;73.59
10869;BME280;62667;48.698;8.762;2024-03-08T07:33:11;95782.25;;;0.96;73.71
10869;BME280;62667;48.698;8.762;2024-03-08T07:35:41;95787.31;;;1.01;73.67
10869;BME280;62667;48.698;8.762;2024-03-08T07:38:09;95783.00;;;0.97;73.41
10869;BME280;62667;48.698;8.762;2024-03-08T07:40:37;95781.28;;;1.08;73.99
10869;BME280;62667;48.698;8.762;2024-03-08T07:43:07;95781.06;;;1.16;73.49
10869;BME280;62667;48.698;8.762;2024-03-08T07:45:34;95778.78;;;1.18;73.86
10869;BME280;62667;48.698;8.762;2024-03-08T07:48:01;95781.88;;;1.20;73.65
10869;BME280;62667;48.698;8.762;2024-03-08T07:50:29;95780.47;;;1.26;73.92
10869;BME280;62667;48.698;8.762;2024-03-08T07:52:58;95774.50;;;1.37;74.08
10869;BME280;62667;48.698;8.762;2024-03-08T07:55:26;95771.94;;;1.44;73.58
10869;BME280;62667;48.698;8.762;2024-03-08T07:57:54;95766.13;;;1.64;73.71
10869;BME280;62667;48.698;8.762;2024-03-08T08:00:20;95763.13;;;1.69;73.61
10869;BME280;62667;48.698;8.762;2024-03-08T08:02:47;95760.59;;;1.80;73.41
10869;BME280;62667;48.698;8.762;2024-03-08T08:05:15;95763.69;;;1.82;73.31
10869;BME280;62667;48.698;8.762;2024-03-08T08:07:45;95759.50;;;1.84;73.18
10869;BME280;62667;48.698;8.762;2024-03-08T08:10:12;95760.28;;;1.85;73.16
10869;BME280;62667;48.698;8.762;2024-03-08T08:12:44;95756.28;;;2.02;73.11
10869;BME280;62667;48.698;8.762;2024-03-08T08:15:11;95762.53;;;2.09;73.04
10869;BME280;62667;48.698;8.762;2024-03-08T08:17:38;95753.50;;;2.21;72.85
10869;BME280;62667;48.698;8.762;2024-03-08T08:20:05;95762.13;;;2.07;72.63
10869;BME280;62667;48.698;8.762;2024-03-08T08:22:34;95758.00;;;2.13;72.66
10869;BME280;62667;48.698;8.762;2024-03-08T08:25:02;95756.66;;;2.00;72.37
10869;BME280;62667;48.698;8.762;2024-03-08T08:27:29;95756.34;;;2.05;72.02
10869;BME280;62667;48.698;8.762;2024-03-08T08:29:55;95754.16;;;2.14;72.42
10869;BME280;62667;48.698;8.762;2024-03-08T08:32:22;95755.06;;;2.25;72.44
10869;BME280;62667;48.698;8.762;2024-03-08T08:34:49;95751.66;;;2.28;72.56
10869;BME280;62667;48.698;8.762;2024-03-08T08:37:15;95749.84;;;2.39;71.94
10869;BME280;62667;48.698;8.762;2024-03-08T08:39:42;95755.22;;;2.39;71.82
10869;BME280;62667;48.698;8.762;2024-03-08T08:42:10;95753.69;;;2.38;71.81
10869;BME280;62667;48.698;8.762;2024-03-08T08:44:38;95744.91;;;2.41;72.01
10869;BME280;62667;48.698;8.762;2024-03-08T08:47:05;95747.69;;;2.48;71.64
10869;BME280;62667;48.698;8.762;2024-03-08T08:49:32;95745.00;;;2.48;71.51
10869;BME280;62667;48.698;8.762;2024-03-08T08:52:01;95744.41;;;2.32;71.66
10869;BME280;62667;48.698;8.762;2024-03-08T08:54:28;95744.00;;;2.30;71.72
10869;BME280;62667;48.698;8.762;2024-03-08T08:56:55;95748.53;;;2.23;71.88
10869;BME280;62667;48.698;8.762;2024-03-08T08:59:23;95739.13;;;2.39;71.74
10869;BME280;62667;48.698;8.762;2024-03-08T09:01:50;95747.31;;;2.50;71.34
10869;BME280;62667;48.698;8.762;2024-03-08T09:04:19;95734.59;;;2.43;71.04
10869;BME280;62667;48.698;8.762;2024-03-08T09:06:47;95730.00;;;2.47;70.69
10869;BME280;62667;48.698;8.762;2024-03-08T09:09:13;95725.28;;;2.34;70.71
10869;BME280;62667;48.698;8.762;2024-03-08T09:11:41;95724.50;;;2.33;70.77
10869;BME280;62667;48.698;8.762;2024-03-08T09:14:08;95723.75;;;2.36;71.45
10869;BME280;62667;48.698;8.762;2024-03-08T09:16:38;95726.59;;;2.50;70.73
10869;BME280;62667;48.698;8.762;2024-03-08T09:19:05;95732.53;;;2.67;71.08
10869;BME280;62667;48.698;8.762;2024-03-08T09:21:32;95727.97;;;2.71;70.81
10869;BME280;62667;48.698;8.762;2024-03-08T09:24:00;95720.28;;;2.73;70.82
10869;BME280;62667;48.698;8.762;2024-03-08T09:26:27;95714.19;;;2.76;70.71
10869;BME280;62667;48.698;8.762;2024-03-08T09:28:56;95724.91;;;2.72;70.96
10869;BME280;62667;48.698;8.762;2024-03-08T09:31:23;95716.16;;;2.82;70.42
10869;BME280;62667;48.698;8.762;2024-03-08T09:33:51;95720.97;;;2.63;70.39
10869;BME280;62667;48.698;8.762;2024-03-08T09:36:20;95714.38;;;2.57;69.91
10869;BME280;62667;48.698;8.762;2024-03-08T09:38:47;95714.72;;;2.51;70.61
10869;BME280;62667;48.698;8.762;2024-03-08T09:41:15;95717.81;;;2.53;70.87
10869;BME280;62667;48.698;8.762;2024-03-08T09:43:43;95712.44;;;2.53;70.78
10869;BME280;62667;48.698;8.762;2024-03-08T09:46:10;95712.38;;;2.50;70.69
10869;BME280;62667;48.698;8.762;2024-03-08T09:48:39;95709.22;;;2.78;70.54
10869;BME280;62667;48.698;8.762;2024-03-08T09:51:08;95707.78;;;2.87;70.09
10869;BME280;62667;48.698;8.762;2024-03-08T09:53:39;95706.19;;;2.79;69.34
10869;BME280;62667;48.698;8.762;2024-03-08T09:56:06;95711.53;;;2.79;70.15
10869;BME280;62667;48.698;8.762;2024-03-08T09:58:33;95704.66;;;2.82;69.80
10869;BME280;62667;48.698;8.762;2024-03-08T10:01:20;95700.47;;;2.88;69.60
10869;BME280;62667;48.698;8.762;2024-03-08T10:03:47;95698.13;;;2.83;69.39
10869;BME280;62667;48.698;8.762;2024-03-08T10:06:16;95693.56;;;2.87;69.21
10869;BME280;62667;48.698;8.762;2024-03-08T10:08:44;95691.56;;;2.80;69.88
10869;BME280;62667;48.698;8.762;2024-03-08T10:11:10;95692.75;;;2.79;69.47
10869;BME280;62667;48.698;8.762;2024-03-08T10:13:38;95688.16;;;2.83;69.43
10869;BME280;62667;48.698;8.762;2024-03-08T10:16:06;95690.34;;;2.71;68.97
10869;BME280;62667;48.698;8.762;2024-03-08T10:18:33;95681.16;;;2.72;69.74
10869;BME280;62667;48.698;8.762;2024-03-08T10:21:05;95682.28;;;2.71;69.63
10869;BME280;62667;48.698;8.762;2024-03-08T10:23:34;95676.94;;;2.74;69.62
10869;BME280;62667;48.698;8.762;2024-03-08T10:26:10;95671.94;;;2.73;69.34
10869;BME280;62667;48.698;8.762;2024-03-08T10:28:40;95667.53;;;2.98;69.76
10869;BME280;62667;48.698;8.762;2024-03-08T10:31:07;95675.31;;;3.06;69.09
10869;BME280;62667;48.698;8.762;2024-03-08T10:33:34;95668.84;;;3.18;68.88
10869;BME280;62667;48.698;8.762;2024-03-08T10:36:03;95658.22;;;3.36;69.06
10869;BME280;62667;48.698;8.762;2024-03-08T10:38:31;95654.41;;;3.37;68.33
10869;BME280;62667;48.698;8.762;2024-03-08T10:41:03;95657.06;;;3.33;68.70
10869;BME280;62667;48.698;8.762;2024-03-08T10:43:47;95652.53;;;3.44;68.11
10869;BME280;62667;48.698;8.762;2024-03-08T10:46:26;95657.13;;;3.40;68.51
10869;BME280;62667;48.698;8.762;2024-03-08T10:48:59;95649.22;;;3.68;68.13
10869;BME280;62667;48.698;8.762;2024-03-08T10:51:28;95645.34;;;3.69;67.59
10869;BME280;62667;48.698;8.762;2024-03-08T10:53:57;95648.09;;;3.80;67.38
10869;BME280;62667;48.698;8.762;2024-03-08T10:56:26;95651.94;;;3.79;67.40
10869;BME280;62667;48.698;8.762;2024-03-08T10:58:54;95661.25;;;3.96;67.49
10869;BME280;62667;48.698;8.762;2024-03-08T11:01:21;95653.22;;;4.03;66.62
10869;BME280;62667;48.698;8.762;2024-03-08T11:03:49;95649.75;;;4.02;66.28
10869;BME280;62667;48.698;8.762;2024-03-08T11:06:21;95647.41;;;3.97;66.24
10869;BME280;62667;48.698;8.762;2024-03-08T11:08:49;95653.44;;;3.69;66.37
10869;BME280;62667;48.698;8.762;2024-03-08T11:11:27;95662.56;;;3.54;67.04
10869;BME280;62667;48.698;8.762;2024-03-08T11:13:55;95657.16;;;3.47;66.69
10869;BME280;62667;48.698;8.762;2024-03-08T11:16:43;95653.41;;;3.62;66.63
10869;BME280;62667;48.698;8.762;2024-03-08T11:19:24;95651.47;;;3.59;66.77
10869;BME280;62667;48.698;8.762;2024-03-08T11:21:58;95650.34;;;3.67;66.92
10869;BME280;62667;48.698;8.762;2024-03-08T11:24:24;95638.44;;;3.72;66.98
10869;BME280;62667;48.698;8.762;2024-03-08T11:26:57;95637.31;;;3.76;66.95
10869;BME280;62667;48.698;8.762;2024-03-08T11:29:37;95638.56;;;3.97;66.63
10869;BME280;62667;48.698;8.762;2024-03-08T11:32:08;95632.84;;;4.02;66.77
10869;BME280;62667;48.698;8.762;2024-03-08T11:34:40;95622.78;;;3.92;66.02
10869;BME280;62667;48.698;8.762;2024-03-08T11:37:12;95626.28;;;4.03;65.85
10869;BME280;62667;48.698;8.762;2024-03-08T11:39:41;95619.03;;;4.14;65.70
10869;BME280;62667;48.698;8.762;2024-03-08T11:42:14;95618.66;;;4.26;65.24
10869;BME280;62667;48.698;8.762;2024-03-08T11:44:41;95616.75;;;4.26;65.04
10869;BME280;62667;48.698;8.762;2024-03-08T11:47:10;95614.38;;;4.11;64.67
10869;BME280;62667;48.698;8.762;2024-03-08T11:49:37;95606.31;;;4.18;64.46
10869;BME280;62667;48.698;8.762;2024-03-08T11:52:04;95611.72;;;4.25;65.22
10869;BME280;62667;48.698;8.762;2024-03-08T11:54:31;95603.31;;;4.44;66.06
10869;BME280;62667;48.698;8.762;2024-03-08T11:56:57;95611.03;;;4.67;63.65
10869;BME280;62667;48.698;8.762;2024-03-08T11:59:31;95597.97;;;4.83;63.81
10869;BME280;62667;48.698;8.762;2024-03-08T12:02:00;95592.19;;;5.05;62.70
10869;BME280;62667;48.698;8.762;2024-03-08T12:04:27;95591.00;;;5.10;62.92
10869;BME280;62667;48.698;8.762;2024-03-08T12:06:54;95584.34;;;5.57;62.06
10869;BME280;62667;48.698;8.762;2024-03-08T12:09:20;95577.06;;;5.54;61.32
10869;BME280;62667;48.698;8.762;2024-03-08T12:11:48;95574.34;;;5.54;61.16
10869;BME280;62667;48.698;8.762;2024-03-08T12:14:16;95570.81;;;5.74;61.11
10869;BME280;62667;48.698;8.762;2024-03-08T12:16:44;95572.28;;;5.93;60.78
10869;BME280;62667;48.698;8.762;2024-03-08T12:19:11;95574.84;;;6.21;59.20
10869;BME280;62667;48.698;8.762;2024-03-08T12:21:38;95569.88;;;6.75;58.98
10869;BME280;62667;48.698;8.762;2024-03-08T12:24:15;95556.81;;;7.11;58.62
10869;BME280;62667;48.698;8.762;2024-03-08T12:26:42;95546.00;;;7.82;55.70
10869;BME280;62667;48.698;8.762;2024-03-08T12:29:16;95545.16;;;8.95;53.95
10869;BME280;62667;48.698;8.762;2024-03-08T12:31:46;95536.94;;;8.52;53.69
10869;BME280;62667;48.698;8.762;2024-03-08T12:34:13;95537.03;;;8.45;54.66
10869;BME280;62667;48.698;8.762;2024-03-08T12:36:45;95531.88;;;9.24;52.81
10869;BME280;62667;48.698;8.762;2024-03-08T12:39:13;95523.69;;;9.47;51.13
10869;BME280;62667;48.698;8.762;2024-03-08T12:41:41;95528.66;;;8.86;51.15
10869;BME280;62667;48.698;8.762;2024-03-08T12:44:08;95518.91;;;8.88;52.55
10869;BME280;62667;48.698;8.762;2024-03-08T12:46:37;95514.56;;;9.37;52.33
10869;BME280;62667;48.698;8.762;2024-03-08T12:49:08;95511.22;;;9.30;52.20
10869;BME280;62667;48.698;8.762;2024-03-08T12:51:35;95497.84;;;9.19;52.33
10869;BME280;62667;48.698;8.762;2024-03-08T12:54:02;95493.00;;;9.50;52.90
10869;BME280;62667;48.698;8.762;2024-03-08T12:56:29;95495.31;;;10.43;49.65
10869;BME280;62667;48.698;8.762;2024-03-08T12:58:58;95494.19;;;11.21;48.78
10869;BME280;62667;48.698;8.762;2024-03-08T13:01:24;95482.03;;;12.33;45.34
10869;BME280;62667;48.698;8.762;2024-03-08T13:03:52;95463.09;;;11.76;47.12
10869;BME280;62667;48.698;8.762;2024-03-08T13:06:22;95471.69;;;10.72;47.34
10869;BME280;62667;48.698;8.762;2024-03-08T13:08:52;95465.00;;;11.34;46.98
10869;BME280;62667;48.698;8.762;2024-03-08T13:11:19;95463.53;;;11.46;46.21
10869;BME280;62667;48.698;8.762;2024-03-08T13:13:46;95464.41;;;11.42;47.09